createdAt,value
2017-07-30T00:00:30.827Z,99.99
2017-07-30T00:01:30.859Z,99.99
2017-07-30T00:02:31.191Z,99.99
2017-07-30T00:03:30.809Z,99.99
2017-07-30T00:04:30.804Z,99.99
2017-07-30T00:05:30.475Z,99.99
2017-07-30T00:06:31.376Z,99.99
2017-07-30T00:07:30.472Z,99.99
2017-07-30T00:08:30.466Z,99.99
2017-07-30T00:09:30.780Z,99.99
2017-07-30T00:10:31.652Z,99.99
2017-07-30T00:11:30.453Z,99.99
2017-07-30T00:12:30.788Z,99.99
2017-07-30T00:13:30.812Z,99.99
2017-07-30T00:14:30.770Z,99.99
2017-07-30T00:15:30.440Z,99.99
2017-07-30T00:16:30.756Z,99.99
2017-07-30T00:17:30.722Z,99.99
2017-07-30T00:18:30.748Z,99.99
2017-07-30T00:19:30.772Z,99.99
2017-07-30T00:20:30.740Z,99.99
2017-07-30T00:21:31.276Z,99.99
2017-07-30T00:22:30.736Z,99.99
2017-07-30T00:23:30.733Z,99.99
2017-07-30T00:24:30.403Z,99.99
2017-07-30T00:25:30.876Z,99.99
2017-07-30T00:26:30.403Z,99.99
2017-07-30T00:27:30.734Z,99.99
2017-07-30T00:28:30.713Z,99.99
2017-07-30T00:29:30.936Z,99.99
2017-07-30T00:30:30.704Z,99.99
2017-07-30T00:31:30.720Z,99.99
2017-07-30T00:32:30.539Z,99.99
2017-07-30T00:33:30.709Z,99.99
2017-07-30T00:34:30.716Z,99.99
2017-07-30T00:35:30.370Z,99.99
2017-07-30T00:36:31.244Z,99.99
2017-07-30T00:37:30.359Z,99.99
2017-07-30T00:38:30.674Z,99.99
2017-07-30T00:39:30.939Z,99.99
2017-07-30T00:40:31.240Z,99.99
2017-07-30T00:41:30.343Z,99.99
2017-07-30T00:42:30.673Z,99.99
2017-07-30T00:43:30.336Z,99.99
2017-07-30T00:44:30.419Z,99.99
2017-07-30T00:45:31.230Z,99.99
2017-07-30T00:46:30.648Z,99.99
2017-07-30T00:47:30.645Z,99.99
2017-07-30T00:48:30.639Z,99.99
2017-07-30T00:49:31.379Z,99.99
2017-07-30T00:50:30.313Z,99.99
2017-07-30T00:51:30.647Z,99.99
2017-07-30T00:52:30.303Z,99.99
2017-07-30T00:53:31.196Z,99.99
2017-07-30T00:54:30.298Z,99.99
2017-07-30T00:55:30.627Z,99.99
2017-07-30T00:56:30.614Z,99.99
2017-07-30T00:57:30.605Z,99.99
2017-07-30T00:58:30.310Z,99.99
2017-07-30T00:59:31.028Z,99.99
2017-07-30T01:00:30.996Z,99.99
2017-07-30T01:01:30.597Z,99.99
2017-07-30T01:02:30.594Z,99.99
2017-07-30T01:03:30.265Z,99.99
2017-07-30T01:04:30.590Z,99.99
2017-07-30T01:05:30.582Z,99.99
2017-07-30T01:06:30.645Z,99.99
2017-07-30T01:07:30.569Z,99.99
2017-07-30T01:08:30.570Z,99.99
2017-07-30T01:09:30.903Z,99.99
2017-07-30T01:10:30.595Z,99.99
2017-07-30T01:11:30.236Z,99.99
2017-07-30T01:12:30.944Z,99.99
2017-07-30T01:13:30.232Z,99.99
2017-07-30T01:14:30.567Z,99.99
2017-07-30T01:15:30.545Z,99.99
2017-07-30T01:16:30.539Z,99.99
2017-07-30T01:17:31.151Z,99.99
2017-07-30T01:18:30.637Z,99.99
2017-07-30T01:19:30.234Z,99.99
2017-07-30T01:20:30.530Z,99.99
2017-07-30T01:21:30.542Z,99.99
2017-07-30T01:22:30.519Z,99.99
2017-07-30T01:23:30.535Z,99.99
2017-07-30T01:24:31.061Z,99.99
2017-07-30T01:25:31.067Z,99.99
2017-07-30T01:26:31.008Z,99.99
2017-07-30T01:27:30.503Z,99.99
2017-07-30T01:28:30.506Z,99.99
2017-07-30T01:29:30.501Z,99.99
2017-07-30T01:30:30.496Z,99.99
2017-07-30T01:31:30.499Z,99.99
2017-07-30T01:32:30.963Z,99.99
2017-07-30T01:33:30.528Z,99.99
2017-07-30T01:34:30.498Z,99.99
2017-07-30T01:35:30.514Z,99.99
2017-07-30T01:36:31.026Z,99.99
2017-07-30T01:37:30.152Z,99.99
2017-07-30T01:38:30.477Z,99.99
2017-07-30T01:39:30.148Z,99.99
2017-07-30T01:40:30.477Z,99.99
2017-07-30T01:41:30.466Z,99.99
2017-07-30T01:42:31.050Z,99.99
2017-07-30T01:43:31.043Z,99.99
2017-07-30T01:44:30.454Z,99.99
2017-07-30T01:45:30.123Z,99.99
2017-07-30T01:46:30.445Z,99.99
2017-07-30T01:47:30.474Z,99.99
2017-07-30T01:48:30.448Z,99.99
2017-07-30T01:49:31.059Z,99.99
2017-07-30T01:50:30.460Z,99.99
2017-07-30T01:51:30.871Z,99.99
2017-07-30T01:52:30.459Z,99.99
2017-07-30T01:53:30.430Z,99.99
2017-07-30T01:54:30.420Z,99.99
2017-07-30T01:55:30.416Z,99.99
2017-07-30T01:56:30.414Z,99.99
2017-07-30T01:57:30.935Z,99.99
2017-07-30T01:58:30.923Z,99.99
2017-07-30T01:59:30.100Z,99.99
2017-07-30T02:00:30.403Z,99.99
2017-07-30T02:01:30.397Z,99.99
2017-07-30T02:02:30.388Z,99.99
2017-07-30T02:03:30.391Z,99.99
2017-07-30T02:04:30.982Z,99.99
2017-07-30T02:05:30.962Z,99.99
2017-07-30T02:06:30.480Z,99.99
2017-07-30T02:07:30.377Z,99.99
2017-07-30T02:08:30.372Z,99.99
2017-07-30T02:09:30.375Z,99.99
2017-07-30T02:10:30.361Z,99.99
2017-07-30T02:11:30.664Z,99.99
2017-07-30T02:12:30.819Z,99.99
2017-07-30T02:13:30.484Z,99.99
2017-07-30T02:14:30.347Z,99.99
2017-07-30T02:15:30.025Z,99.99
2017-07-30T02:16:30.349Z,99.99
2017-07-30T02:17:30.345Z,99.99
2017-07-30T02:18:30.015Z,99.99
2017-07-30T02:19:30.331Z,99.99
2017-07-30T02:20:30.328Z,99.99
2017-07-30T02:21:30.023Z,99.99
2017-07-30T02:22:30.351Z,99.99
2017-07-30T02:23:30.762Z,99.99
2017-07-30T02:24:30.776Z,99.99
2017-07-30T02:25:30.745Z,99.99
2017-07-30T02:26:30.313Z,99.99
2017-07-30T02:27:30.304Z,99.99
2017-07-30T02:28:30.312Z,99.99
2017-07-30T02:29:30.296Z,99.99
2017-07-30T02:30:29.975Z,99.99
2017-07-30T02:31:30.295Z,99.99
2017-07-30T02:32:30.286Z,99.99
2017-07-30T02:33:30.672Z,99.99
2017-07-30T02:34:30.340Z,99.99
2017-07-30T02:35:30.421Z,99.99
2017-07-30T02:36:30.281Z,99.99
2017-07-30T02:37:30.270Z,99.99
2017-07-30T02:38:30.269Z,99.99
2017-07-30T02:39:30.681Z,99.99
2017-07-30T02:40:30.272Z,99.99
2017-07-30T02:41:30.262Z,99.99
2017-07-30T02:42:30.509Z,99.99
2017-07-30T02:43:30.359Z,99.99
2017-07-30T02:44:30.276Z,99.99
2017-07-30T02:45:29.924Z,99.99
2017-07-30T02:46:30.256Z,99.99
2017-07-30T02:47:30.199Z,99.99
2017-07-30T02:48:30.148Z,99.99
2017-07-30T02:49:30.238Z,99.99
2017-07-30T02:50:30.370Z,99.99
2017-07-30T02:51:30.227Z,99.99
2017-07-30T02:52:30.223Z,99.99
2017-07-30T02:53:30.332Z,99.99
2017-07-30T02:54:29.898Z,99.99
2017-07-30T02:55:30.210Z,99.99
2017-07-30T02:56:30.532Z,99.99
2017-07-30T02:57:29.883Z,99.99
2017-07-30T02:58:30.199Z,99.99
2017-07-30T02:59:30.265Z,99.99
2017-07-30T03:00:29.877Z,99.99
2017-07-30T03:01:30.187Z,99.99
2017-07-30T03:02:29.884Z,99.99
2017-07-30T03:03:30.716Z,99.99
2017-07-30T03:04:30.197Z,99.99
2017-07-30T03:05:30.202Z,99.99
2017-07-30T03:06:30.194Z,99.99
2017-07-30T03:07:30.601Z,99.99
2017-07-30T03:08:30.172Z,99.99
2017-07-30T03:09:30.672Z,99.99
2017-07-30T03:10:29.848Z,99.99
2017-07-30T03:11:30.156Z,99.99
2017-07-30T03:12:30.175Z,99.99
2017-07-30T03:13:30.589Z,99.99
2017-07-30T03:14:30.167Z,99.99
2017-07-30T03:15:29.824Z,99.99
2017-07-30T03:16:30.150Z,99.99
2017-07-30T03:17:30.147Z,99.99
2017-07-30T03:18:30.148Z,99.99
2017-07-30T03:19:30.136Z,99.99
2017-07-30T03:20:30.123Z,99.99
2017-07-30T03:21:30.128Z,99.99
2017-07-30T03:22:29.796Z,99.99
2017-07-30T03:23:29.823Z,99.99
2017-07-30T03:24:30.109Z,99.99
2017-07-30T03:25:30.121Z,99.99
2017-07-30T03:26:30.103Z,99.99
2017-07-30T03:27:30.130Z,99.99
2017-07-30T03:28:30.122Z,99.99
2017-07-30T03:29:30.096Z,99.99
2017-07-30T03:30:30.093Z,99.99
2017-07-30T03:31:30.121Z,99.99
2017-07-30T03:32:29.761Z,99.99
2017-07-30T03:33:30.078Z,99.99
2017-07-30T03:34:30.080Z,99.99
2017-07-30T03:35:30.091Z,99.99
2017-07-30T03:36:29.773Z,99.99
2017-07-30T03:37:30.073Z,99.99
2017-07-30T03:38:29.740Z,99.99
2017-07-30T03:39:30.064Z,99.99
2017-07-30T03:40:30.073Z,99.99
2017-07-30T03:41:30.056Z,99.99
2017-07-30T03:42:29.726Z,99.99
2017-07-30T03:43:30.045Z,99.99
2017-07-30T03:44:30.041Z,99.99
2017-07-30T03:45:30.036Z,99.99
2017-07-30T03:46:30.034Z,99.99
2017-07-30T03:47:30.043Z,99.99
2017-07-30T03:48:30.026Z,99.99
2017-07-30T03:49:30.044Z,99.99
2017-07-30T03:50:30.018Z,99.99
2017-07-30T03:51:30.020Z,99.99
2017-07-30T03:52:30.029Z,99.99
2017-07-30T03:53:30.011Z,99.99
2017-07-30T03:54:30.007Z,99.99
2017-07-30T03:55:30.000Z,99.99
2017-07-30T03:56:30.028Z,99.99
2017-07-30T03:57:29.995Z,99.99
2017-07-30T03:58:29.996Z,99.99
2017-07-30T03:59:30.003Z,99.99
2017-07-30T04:00:29.664Z,99.99
2017-07-30T04:01:29.979Z,99.99
2017-07-30T04:02:29.657Z,99.99
2017-07-30T04:03:29.969Z,99.99
2017-07-30T04:04:29.965Z,99.99
2017-07-30T04:05:29.647Z,99.99
2017-07-30T04:06:29.966Z,99.99
2017-07-30T04:07:29.638Z,99.99
2017-07-30T04:08:29.956Z,99.99
2017-07-30T04:09:29.964Z,99.99
2017-07-30T04:10:29.952Z,99.99
2017-07-30T04:11:29.943Z,99.99
2017-07-30T04:12:29.643Z,99.99
2017-07-30T04:13:29.614Z,99.99
2017-07-30T04:14:29.614Z,99.99
2017-07-30T04:15:29.938Z,99.99
2017-07-30T04:16:29.928Z,99.99
2017-07-30T04:17:29.921Z,99.99
2017-07-30T04:18:29.610Z,99.99
2017-07-30T04:19:29.614Z,99.99
2017-07-30T04:20:29.914Z,99.99
2017-07-30T04:21:29.911Z,99.99
2017-07-30T04:22:29.908Z,99.99
2017-07-30T04:23:29.580Z,99.99
2017-07-30T04:24:29.931Z,99.99
2017-07-30T04:25:29.893Z,99.99
2017-07-30T04:26:29.893Z,99.99
2017-07-30T04:27:29.570Z,99.99
2017-07-30T04:28:29.883Z,99.99
2017-07-30T04:29:29.562Z,99.99
2017-07-30T04:30:29.556Z,99.99
2017-07-30T04:31:29.873Z,99.99
2017-07-30T04:32:29.874Z,99.99
2017-07-30T04:33:29.549Z,99.99
2017-07-30T04:34:29.556Z,99.99
2017-07-30T04:35:29.875Z,99.99
2017-07-30T04:36:29.856Z,99.99
2017-07-30T04:37:29.857Z,99.99
2017-07-30T04:38:29.848Z,99.99
2017-07-30T04:39:29.858Z,99.99
2017-07-30T04:40:29.864Z,99.99
2017-07-30T04:41:29.842Z,99.99
2017-07-30T04:42:29.852Z,99.99
2017-07-30T04:43:29.520Z,99.99
2017-07-30T04:44:29.508Z,99.99
2017-07-30T04:45:29.509Z,99.99
2017-07-30T04:46:29.503Z,99.99
2017-07-30T04:47:29.819Z,99.99
2017-07-30T04:48:29.820Z,99.99
2017-07-30T04:49:29.820Z,99.99
2017-07-30T04:50:29.812Z,99.99
2017-07-30T04:51:29.812Z,99.99
2017-07-30T04:52:29.809Z,99.99
2017-07-30T04:53:29.827Z,99.99
2017-07-30T04:54:29.818Z,99.99
2017-07-30T04:55:29.798Z,99.99
2017-07-30T04:56:29.847Z,99.99
2017-07-30T04:57:29.801Z,99.99
2017-07-30T04:58:29.799Z,99.99
2017-07-30T04:59:29.796Z,99.99
2017-07-30T05:00:29.783Z,99.99
2017-07-30T05:01:29.779Z,99.99
2017-07-30T05:02:29.782Z,99.99
2017-07-30T05:03:29.453Z,99.99
2017-07-30T05:04:29.454Z,99.99
2017-07-30T05:05:29.767Z,99.99
2017-07-30T05:06:29.777Z,99.99
2017-07-30T05:07:29.766Z,99.99
2017-07-30T05:08:29.773Z,99.99
2017-07-30T05:09:29.773Z,99.99
2017-07-30T05:10:29.757Z,99.99
2017-07-30T05:11:29.431Z,99.99
2017-07-30T05:12:29.767Z,99.99
2017-07-30T05:13:29.748Z,99.99
2017-07-30T05:14:29.745Z,99.99
2017-07-30T05:15:29.740Z,99.99
2017-07-30T05:16:29.736Z,99.99
2017-07-30T05:17:29.736Z,99.99
2017-07-30T05:18:29.732Z,99.99
2017-07-30T05:19:29.733Z,99.34
2017-07-30T05:20:29.405Z,99.01
2017-07-30T05:21:29.728Z,99.49
2017-07-30T05:22:29.723Z,99.68
2017-07-30T05:23:29.399Z,99.01
2017-07-30T05:24:29.436Z,98.82
2017-07-30T05:25:29.715Z,97.76
2017-07-30T05:26:29.721Z,97.96
2017-07-30T05:27:29.390Z,97.38
2017-07-30T05:28:29.710Z,98.05
2017-07-30T05:29:29.712Z,97.76
2017-07-30T05:30:29.704Z,97.09
2017-07-30T05:31:29.703Z,97.47
2017-07-30T05:32:29.714Z,96.8
2017-07-30T05:33:29.700Z,96.03
2017-07-30T05:34:29.701Z,95.31
2017-07-30T05:35:29.702Z,95.6
2017-07-30T05:36:29.692Z,96.27
2017-07-30T05:37:29.693Z,97.04
2017-07-30T05:38:29.692Z,96.08
2017-07-30T05:39:29.369Z,94.93
2017-07-30T05:40:29.685Z,94.64
2017-07-30T05:41:29.699Z,95.12
2017-07-30T05:42:29.684Z,94.93
2017-07-30T05:43:29.356Z,94.73
2017-07-30T05:44:29.698Z,94.54
2017-07-30T05:45:29.677Z,95.03
2017-07-30T05:46:29.695Z,94.83
2017-07-30T05:47:29.678Z,95.12
2017-07-30T05:48:29.670Z,94.83
2017-07-30T05:49:29.695Z,94.68
2017-07-30T05:50:29.668Z,94.88
2017-07-30T05:51:29.667Z,94.64
2017-07-30T05:52:29.344Z,94.98
2017-07-30T05:53:29.681Z,95.65
2017-07-30T05:54:29.339Z,95.7
2017-07-30T05:55:29.658Z,95.65
2017-07-30T05:56:29.683Z,95.65
2017-07-30T05:57:29.335Z,95.84
2017-07-30T05:58:29.654Z,95.65
2017-07-30T05:59:29.656Z,95.36
2017-07-30T06:00:29.656Z,95.45
2017-07-30T06:01:29.664Z,94.93
2017-07-30T06:02:29.649Z,94.98
2017-07-30T06:03:29.327Z,94.4
2017-07-30T06:04:29.345Z,92.96
2017-07-30T06:05:29.657Z,93.24
2017-07-30T06:06:29.669Z,93.15
2017-07-30T06:07:29.652Z,92.57
2017-07-30T06:08:29.648Z,91.52
2017-07-30T06:09:29.341Z,92.04
2017-07-30T06:10:29.642Z,92.23
2017-07-30T06:11:29.319Z,93.24
2017-07-30T06:12:29.640Z,93.48
2017-07-30T06:13:29.633Z,93.68
2017-07-30T06:14:29.631Z,92.81
2017-07-30T06:15:29.636Z,92.33
2017-07-30T06:16:29.635Z,92.52
2017-07-30T06:17:29.634Z,91.75
2017-07-30T06:18:29.632Z,93.19
2017-07-30T06:19:29.316Z,93.29
2017-07-30T06:20:29.630Z,92.61
2017-07-30T06:21:29.308Z,92.04
2017-07-30T06:22:29.304Z,91.36
2017-07-30T06:23:29.629Z,90.79
2017-07-30T06:24:29.639Z,90.21
2017-07-30T06:25:29.631Z,90.69
2017-07-30T06:26:29.619Z,90.12
2017-07-30T06:27:29.626Z,89.97
2017-07-30T06:28:29.635Z,89.29
2017-07-30T06:29:29.302Z,89.68
2017-07-30T06:30:29.626Z,88.91
2017-07-30T06:31:29.618Z,89.97
2017-07-30T06:32:29.621Z,89.01
2017-07-30T06:33:29.637Z,88.04
2017-07-30T06:34:29.312Z,86.51
2017-07-30T06:35:29.614Z,86.22
2017-07-30T06:36:29.616Z,86.02
2017-07-30T06:37:29.294Z,87.08
2017-07-30T06:38:29.612Z,86.45
2017-07-30T06:39:29.291Z,84.72
2017-07-30T06:40:29.612Z,84.23
2017-07-30T06:41:29.609Z,85.05
2017-07-30T06:42:29.615Z,85.72
2017-07-30T06:43:29.615Z,84.95
2017-07-30T06:44:29.613Z,84.38
2017-07-30T06:45:29.292Z,83.7
2017-07-30T06:46:29.630Z,82.45
2017-07-30T06:47:29.606Z,82.29
2017-07-30T06:48:29.631Z,81.85
2017-07-30T06:49:29.610Z,78.86
2017-07-30T06:50:29.635Z,76.59
2017-07-30T06:51:29.612Z,74.31
2017-07-30T06:52:29.310Z,72.26
2017-07-30T06:53:29.630Z,70.26
2017-07-30T06:54:29.610Z,67.49
2017-07-30T06:55:29.616Z,66.66
2017-07-30T06:56:29.296Z,62.85
2017-07-30T06:57:29.613Z,59.26
2017-07-30T06:58:29.300Z,55.63
2017-07-30T06:59:29.353Z,52.28
2017-07-30T07:00:29.307Z,49.41
2017-07-30T07:01:29.627Z,48.95
2017-07-30T07:02:29.642Z,46.25
2017-07-30T07:03:29.630Z,44.24
2017-07-30T07:04:29.338Z,43.68
2017-07-30T07:05:29.317Z,43.59
2017-07-30T07:06:29.649Z,42.63
2017-07-30T07:07:29.645Z,40.8
2017-07-30T07:08:29.668Z,40.5
2017-07-30T07:09:29.661Z,40.41
2017-07-30T07:10:29.664Z,40.6
2017-07-30T07:11:29.345Z,40.14
2017-07-30T07:12:29.675Z,39.08
2017-07-30T07:13:29.359Z,39.18
2017-07-30T07:14:29.687Z,38.89
2017-07-30T07:15:29.692Z,38.12
2017-07-30T07:16:29.704Z,38.49
2017-07-30T07:17:29.699Z,37.71
2017-07-30T07:18:29.722Z,39.39
2017-07-30T07:19:29.731Z,38.71
2017-07-30T07:20:29.401Z,36.57
2017-07-30T07:21:29.732Z,36.4
2017-07-30T07:22:29.740Z,36.28
2017-07-30T07:23:29.751Z,36.3
2017-07-30T07:24:29.432Z,37.18
2017-07-30T07:25:29.439Z,36.49
2017-07-30T07:26:29.767Z,37.1
2017-07-30T07:27:29.775Z,35.83
2017-07-30T07:28:29.466Z,35.45
2017-07-30T07:29:29.471Z,34.49
2017-07-30T07:30:29.799Z,34.49
2017-07-30T07:31:29.804Z,33.8
2017-07-30T07:32:29.820Z,32.84
2017-07-30T07:33:29.513Z,33.43
2017-07-30T07:34:29.831Z,33.72
2017-07-30T07:35:29.845Z,32.86
2017-07-30T07:36:29.528Z,31.87
2017-07-30T07:37:29.860Z,33.65
2017-07-30T07:38:29.874Z,32.87
2017-07-30T07:39:29.886Z,33.65
2017-07-30T07:40:29.884Z,30.93
2017-07-30T07:41:29.900Z,30.63
2017-07-30T07:42:29.588Z,31.7
2017-07-30T07:43:29.596Z,30.91
2017-07-30T07:44:29.926Z,30.33
2017-07-30T07:45:29.614Z,30.04
2017-07-30T07:46:29.943Z,30.12
2017-07-30T07:47:29.963Z,31.01
2017-07-30T07:48:29.658Z,30.81
2017-07-30T07:49:30.007Z,32.01
2017-07-30T07:50:29.986Z,31.61
2017-07-30T07:51:29.896Z,31.82
2017-07-30T07:52:30.019Z,30.45
2017-07-30T07:53:30.009Z,31.73
2017-07-30T07:54:29.709Z,30.35
2017-07-30T07:55:30.031Z,29.47
2017-07-30T07:56:29.737Z,30.24
2017-07-30T07:57:30.050Z,30.32
2017-07-30T07:58:29.741Z,30.42
2017-07-30T07:59:30.067Z,31.2
2017-07-30T08:00:30.076Z,31.58
2017-07-30T08:01:30.100Z,32.09
2017-07-30T08:02:29.774Z,34.13
2017-07-30T08:03:29.784Z,32.84
2017-07-30T08:04:30.111Z,32.94
2017-07-30T08:05:29.797Z,32.94
2017-07-30T08:06:30.146Z,35.96
2017-07-30T08:07:29.815Z,35.06
2017-07-30T08:08:30.142Z,36.33
2017-07-30T08:09:30.151Z,36.22
2017-07-30T08:10:30.158Z,36.77
2017-07-30T08:11:30.165Z,38.22
2017-07-30T08:12:30.172Z,38.01
2017-07-30T08:13:30.178Z,38.38
2017-07-30T08:14:30.231Z,40.48
2017-07-30T08:15:30.191Z,42.32
2017-07-30T08:16:30.198Z,43.84
2017-07-30T08:17:30.214Z,46.91
2017-07-30T08:18:29.892Z,49.12
2017-07-30T08:19:30.218Z,49
2017-07-30T08:20:30.240Z,48.88
2017-07-30T08:21:30.229Z,50.12
2017-07-30T08:22:30.233Z,51.35
2017-07-30T08:23:30.256Z,51.65
2017-07-30T08:24:30.245Z,52.23
2017-07-30T08:25:30.258Z,53.49
2017-07-30T08:26:30.259Z,51.35
2017-07-30T08:27:29.943Z,51.26
2017-07-30T08:28:30.273Z,50.84
2017-07-30T08:29:29.952Z,52.78
2017-07-30T08:30:30.286Z,51.81
2017-07-30T08:31:30.282Z,53.95
2017-07-30T08:32:30.307Z,53.85
2017-07-30T08:33:30.333Z,53.66
2017-07-30T08:34:30.297Z,52.88
2017-07-30T08:35:30.305Z,53.75
2017-07-30T08:36:30.326Z,53.95
2017-07-30T08:37:30.322Z,52.59
2017-07-30T08:38:30.317Z,53.75
2017-07-30T08:39:30.322Z,55.11
2017-07-30T08:40:30.327Z,55.69
2017-07-30T08:41:30.342Z,53.66
2017-07-30T08:42:30.353Z,53.75
2017-07-30T08:43:30.342Z,55.21
2017-07-30T08:44:30.371Z,55.21
2017-07-30T08:45:30.349Z,54.44
2017-07-30T08:46:30.372Z,53.08
2017-07-30T08:47:30.371Z,55.41
2017-07-30T08:48:30.364Z,55.99
2017-07-30T08:49:30.391Z,55.02
2017-07-30T08:50:30.372Z,55.11
2017-07-30T08:51:30.378Z,55.04
2017-07-30T08:52:30.081Z,54.53
2017-07-30T08:53:30.388Z,57.47
2017-07-30T08:54:30.391Z,54.46
2017-07-30T08:55:30.075Z,54.66
2017-07-30T08:56:30.414Z,54.56
2017-07-30T08:57:30.420Z,53.49
2017-07-30T08:58:30.089Z,54.75
2017-07-30T08:59:30.413Z,52.42
2017-07-30T09:00:30.419Z,53.1
2017-07-30T09:01:30.102Z,55.53
2017-07-30T09:02:30.426Z,55.43
2017-07-30T09:03:30.432Z,56.21
2017-07-30T09:04:30.439Z,54.75
2017-07-30T09:05:30.134Z,58.64
2017-07-30T09:06:30.447Z,53.81
2017-07-30T09:07:30.453Z,54.97
2017-07-30T09:08:30.451Z,53.42
2017-07-30T09:09:30.459Z,53.81
2017-07-30T09:10:30.463Z,54.78
2017-07-30T09:11:30.467Z,55.46
2017-07-30T09:12:30.471Z,54.39
2017-07-30T09:13:30.476Z,54.97
2017-07-30T09:14:30.479Z,58.57
2017-07-30T09:15:30.487Z,56.04
2017-07-30T09:16:30.490Z,54.9
2017-07-30T09:17:30.174Z,54.8
2017-07-30T09:18:30.503Z,58.69
2017-07-30T09:19:30.529Z,57.72
2017-07-30T09:20:30.513Z,55.58
2017-07-30T09:21:30.522Z,57.23
2017-07-30T09:22:30.517Z,55.88
2017-07-30T09:23:30.522Z,54.93
2017-07-30T09:24:30.525Z,54.03
2017-07-30T09:25:30.531Z,53.74
2017-07-30T09:26:30.215Z,54.15
2017-07-30T09:27:30.220Z,53.08
2017-07-30T09:28:30.541Z,53.47
2017-07-30T09:29:30.549Z,55.88
2017-07-30T09:30:30.552Z,55.13
2017-07-30T09:31:30.558Z,54.9
2017-07-30T09:32:30.565Z,54.05
2017-07-30T09:33:30.577Z,55.58
2017-07-30T09:34:30.574Z,53.18
2017-07-30T09:35:30.578Z,53.45
2017-07-30T09:36:30.583Z,54.54
2017-07-30T09:37:30.267Z,54.05
2017-07-30T09:38:30.594Z,53.18
2017-07-30T09:39:30.595Z,53.57
2017-07-30T09:40:30.284Z,52.98
2017-07-30T09:41:30.609Z,53.2
2017-07-30T09:42:30.612Z,52.21
2017-07-30T09:43:30.635Z,51.17
2017-07-30T09:44:30.619Z,52.62
2017-07-30T09:45:30.627Z,52.04
2017-07-30T09:46:30.630Z,53.4
2017-07-30T09:47:30.646Z,53.99
2017-07-30T09:48:30.646Z,51.77
2017-07-30T09:49:30.327Z,50.8
2017-07-30T09:50:30.665Z,52.94
2017-07-30T09:51:30.673Z,54.99
2017-07-30T09:52:30.659Z,52.75
2017-07-30T09:53:30.682Z,50.02
2017-07-30T09:54:30.690Z,49.92
2017-07-30T09:55:30.696Z,49.07
2017-07-30T09:56:30.683Z,50.04
2017-07-30T09:57:30.697Z,51.7
2017-07-30T09:58:30.692Z,51.12
2017-07-30T09:59:30.383Z,50.73
2017-07-30T10:00:30.704Z,50.04
2017-07-30T10:01:30.388Z,50.24
2017-07-30T10:02:30.713Z,51.51
2017-07-30T10:03:30.398Z,49.46
2017-07-30T10:04:30.723Z,50.63
2017-07-30T10:05:30.410Z,50.63
2017-07-30T10:06:30.737Z,51.02
2017-07-30T10:07:30.422Z,51.21
2017-07-30T10:08:30.749Z,48.97
2017-07-30T10:09:30.748Z,48.88
2017-07-30T10:10:30.755Z,49.07
2017-07-30T10:11:30.444Z,47.03
2017-07-30T10:12:30.766Z,47.9
2017-07-30T10:13:30.774Z,47.9
2017-07-30T10:14:30.777Z,48.29
2017-07-30T10:15:30.783Z,51.8
2017-07-30T10:16:30.792Z,49.07
2017-07-30T10:17:30.793Z,49.95
2017-07-30T10:18:30.800Z,49.85
2017-07-30T10:19:30.806Z,50.82
2017-07-30T10:20:30.821Z,50.73
2017-07-30T10:21:30.830Z,48.88
2017-07-30T10:22:30.833Z,50.14
2017-07-30T10:23:30.827Z,47.52
2017-07-30T10:24:30.834Z,49.56
2017-07-30T10:25:30.537Z,47.32
2017-07-30T10:26:30.543Z,48.88
2017-07-30T10:27:30.851Z,48.78
2017-07-30T10:28:30.855Z,47.71
2017-07-30T10:29:30.540Z,50.82
2017-07-30T10:30:30.879Z,50.51
2017-07-30T10:31:30.554Z,51.97
2017-07-30T10:32:30.876Z,51.29
2017-07-30T10:33:30.891Z,49.34
2017-07-30T10:34:30.568Z,51.77
2017-07-30T10:35:30.572Z,51.58
2017-07-30T10:36:30.908Z,51.31
2017-07-30T10:37:30.925Z,51.19
2017-07-30T10:38:30.912Z,51.48
2017-07-30T10:39:30.918Z,49.92
2017-07-30T10:40:30.938Z,50.19
2017-07-30T10:41:30.935Z,49.12
2017-07-30T10:42:30.931Z,48.13
2017-07-30T10:43:30.940Z,52.21
2017-07-30T10:44:30.955Z,53.96
2017-07-30T10:45:30.948Z,51.79
2017-07-30T10:46:30.953Z,52.89
2017-07-30T10:47:30.640Z,53.08
2017-07-30T10:48:30.963Z,51.65
2017-07-30T10:49:30.971Z,50.87
2017-07-30T10:50:30.998Z,51.65
2017-07-30T10:51:30.978Z,53.59
2017-07-30T10:52:30.666Z,53.14
2017-07-30T10:53:30.670Z,54.01
2017-07-30T10:54:30.995Z,51.97
2017-07-30T10:55:31.033Z,51.58
2017-07-30T10:56:31.014Z,48.56
2017-07-30T10:57:31.010Z,49.24
2017-07-30T10:58:31.063Z,49.46
2017-07-30T10:59:30.700Z,50.14
2017-07-30T11:00:31.040Z,50.82
2017-07-30T11:01:31.032Z,51.51
2017-07-30T11:02:31.055Z,49.27
2017-07-30T11:03:30.724Z,47.71
2017-07-30T11:04:31.046Z,46.44
2017-07-30T11:05:30.732Z,46.25
2017-07-30T11:06:30.742Z,47.44
2017-07-30T11:07:30.763Z,47.32
2017-07-30T11:08:31.079Z,47.22
2017-07-30T11:09:31.080Z,47.13
2017-07-30T11:10:31.083Z,46.66
2017-07-30T11:11:30.790Z,47.73
2017-07-30T11:12:31.094Z,45.78
2017-07-30T11:13:31.100Z,45.68
2017-07-30T11:14:31.111Z,46.17
2017-07-30T11:15:31.114Z,46.47
2017-07-30T11:16:30.800Z,48.12
2017-07-30T11:17:31.125Z,45.29
2017-07-30T11:18:31.130Z,47.15
2017-07-30T11:19:31.135Z,45.88
2017-07-30T11:20:31.161Z,45.59
2017-07-30T11:21:31.165Z,46.56
2017-07-30T11:22:31.165Z,46.56
2017-07-30T11:23:30.836Z,47.36
2017-07-30T11:24:30.842Z,48.14
2017-07-30T11:25:31.168Z,47.85
2017-07-30T11:26:31.175Z,46.1
2017-07-30T11:27:31.186Z,45.25
2017-07-30T11:28:30.878Z,45.92
2017-07-30T11:29:31.192Z,45.51
2017-07-30T11:30:31.217Z,43.47
2017-07-30T11:31:30.886Z,43.47
2017-07-30T11:32:31.213Z,45.51
2017-07-30T11:33:31.218Z,46.27
2017-07-30T11:34:30.903Z,44.71
2017-07-30T11:35:30.909Z,46.25
2017-07-30T11:36:30.917Z,47.2
2017-07-30T11:37:31.244Z,46.71
2017-07-30T11:38:30.927Z,48.27
2017-07-30T11:39:31.253Z,49.05
2017-07-30T11:40:31.273Z,47.2
2017-07-30T11:41:31.266Z,47.3
2017-07-30T11:42:31.292Z,47.59
2017-07-30T11:43:31.276Z,47.71
2017-07-30T11:44:30.969Z,47.03
2017-07-30T11:45:30.986Z,49.07
2017-07-30T11:46:31.332Z,49.49
2017-07-30T11:47:30.984Z,47.36
2017-07-30T11:48:31.308Z,47.36
2017-07-30T11:49:31.326Z,45.61
2017-07-30T11:50:31.000Z,46
2017-07-30T11:51:31.325Z,47.46
2017-07-30T11:52:31.329Z,45.2
2017-07-30T11:53:31.015Z,46.27
2017-07-30T11:54:31.023Z,46.08
2017-07-30T11:55:31.046Z,47.05
2017-07-30T11:56:31.352Z,46.86
2017-07-30T11:57:31.369Z,46.08
2017-07-30T11:58:31.366Z,45.39
2017-07-30T11:59:31.071Z,46.47
2017-07-30T12:00:31.385Z,46.37
2017-07-30T12:01:31.384Z,46.95
2017-07-30T12:02:31.387Z,47.56
2017-07-30T12:03:31.411Z,49.12
2017-07-30T12:04:31.080Z,47.36
2017-07-30T12:05:31.086Z,47.27
2017-07-30T12:06:31.412Z,48.54
2017-07-30T12:07:31.098Z,47.19
2017-07-30T12:08:31.443Z,47.19
2017-07-30T12:09:31.433Z,47.39
2017-07-30T12:10:31.437Z,44.83
2017-07-30T12:11:31.445Z,46.22
2017-07-30T12:12:31.468Z,43.19
2017-07-30T12:13:31.136Z,44.93
2017-07-30T12:14:31.461Z,45.12
2017-07-30T12:15:31.469Z,45.51
2017-07-30T12:16:31.475Z,45.81
2017-07-30T12:17:31.481Z,47.66
2017-07-30T12:18:31.169Z,48.41
2017-07-30T12:19:31.493Z,46
2017-07-30T12:20:31.500Z,46.1
2017-07-30T12:21:31.506Z,45.12
2017-07-30T12:22:31.510Z,46.59
2017-07-30T12:23:31.197Z,46.1
2017-07-30T12:24:31.524Z,44.32
2017-07-30T12:25:31.537Z,44.42
2017-07-30T12:26:31.540Z,45.39
2017-07-30T12:27:31.558Z,45.68
2017-07-30T12:28:31.575Z,43.33
2017-07-30T12:29:31.554Z,46.54
2017-07-30T12:30:31.562Z,45.47
2017-07-30T12:31:31.584Z,46.25
2017-07-30T12:32:31.255Z,46.64
2017-07-30T12:33:31.578Z,45.57
2017-07-30T12:34:31.583Z,46.15
2017-07-30T12:35:31.590Z,48.78
2017-07-30T12:36:31.595Z,46.34
2017-07-30T12:37:31.301Z,46.64
2017-07-30T12:38:31.636Z,44.98
2017-07-30T12:39:31.293Z,44.4
2017-07-30T12:40:31.300Z,44.57
2017-07-30T12:41:31.634Z,45.45
2017-07-30T12:42:31.311Z,48.17
2017-07-30T12:43:31.320Z,47.69
2017-07-30T12:44:31.646Z,46.03
2017-07-30T12:45:31.650Z,46.91
2017-07-30T12:46:31.336Z,47.2
2017-07-30T12:47:31.338Z,46.51
2017-07-30T12:48:31.688Z,47.78
2017-07-30T12:49:31.671Z,44.4
2017-07-30T12:50:31.688Z,45.54
2017-07-30T12:51:31.694Z,44.57
2017-07-30T12:52:31.700Z,43.3
2017-07-30T12:53:31.375Z,44.67
2017-07-30T12:54:31.378Z,44.49